createdAt,value
2022-08-26T00:01:13.782Z,67.57
2022-08-26T00:03:43.263Z,67.47
2022-08-26T00:06:12.090Z,67.47
2022-08-26T00:08:43.675Z,67.51
2022-08-26T00:11:26.250Z,67.43
2022-08-26T00:13:58.252Z,67.48
2022-08-26T00:16:29.767Z,67.48
2022-08-26T00:19:00.295Z,67.73
2022-08-26T00:21:29.516Z,67.78
2022-08-26T00:23:59.622Z,67.81
2022-08-26T00:26:29.280Z,67.78
2022-08-26T00:28:58.793Z,67.79
2022-08-26T00:31:31.206Z,68.06
2022-08-26T00:34:00.788Z,67.77
2022-08-26T00:36:29.577Z,67.95
2022-08-26T00:38:59.410Z,68.17
2022-08-26T00:41:29.176Z,68.46
2022-08-26T00:43:58.405Z,68.44
2022-08-26T00:46:37.352Z,68.32
2022-08-26T00:49:17.042Z,68.57
2022-08-26T00:51:53.504Z,68.89
2022-08-26T00:54:26.970Z,69.04
2022-08-26T00:57:01.273Z,68.82
2022-08-26T00:59:32.977Z,69.12
2022-08-26T01:02:03.374Z,69.84
2022-08-26T01:04:37.312Z,69.75
2022-08-26T01:07:07.682Z,69.63
2022-08-26T01:09:39.377Z,69.45
2022-08-26T01:12:09.224Z,69.32
2022-08-26T01:14:41.373Z,69.71
2022-08-26T01:17:16.928Z,69.70
2022-08-26T01:19:58.693Z,70.29
2022-08-26T01:22:52.316Z,70.33
2022-08-26T01:25:23.156Z,70.90
2022-08-26T01:27:58.141Z,71.16
2022-08-26T01:30:31.616Z,71.42
2022-08-26T01:33:09.799Z,71.31
2022-08-26T01:35:40.062Z,71.47
2022-08-26T01:38:11.503Z,71.02
2022-08-26T01:40:44.200Z,71.16
2022-08-26T01:43:21.636Z,71.28
2022-08-26T01:45:55.352Z,70.95
2022-08-26T01:48:29.201Z,71.14
2022-08-26T01:51:00.510Z,70.96
2022-08-26T01:53:30.849Z,70.41
2022-08-26T01:56:03.478Z,70.86
2022-08-26T01:58:52.945Z,70.78
2022-08-26T02:01:29.124Z,71.08
2022-08-26T02:04:09.172Z,70.96
2022-08-26T02:06:40.508Z,71.24
2022-08-26T02:09:12.057Z,71.02
2022-08-26T02:11:42.419Z,71.15
2022-08-26T02:14:21.663Z,70.90
2022-08-26T02:16:54.192Z,70.95
2022-08-26T02:19:28.153Z,71.07
2022-08-26T02:22:05.162Z,70.72
2022-08-26T02:25:08.686Z,70.77
2022-08-26T02:27:37.936Z,70.76
2022-08-26T02:30:11.032Z,70.44
2022-08-26T02:32:42.403Z,70.44
2022-08-26T02:35:20.006Z,70.88
2022-08-26T02:37:51.073Z,70.41
2022-08-26T02:40:25.608Z,70.74
2022-08-26T02:42:57.096Z,70.70
2022-08-26T02:45:29.408Z,70.87
2022-08-26T02:48:01.160Z,71.04
2022-08-26T02:50:31.193Z,71.05
2022-08-26T02:53:00.696Z,70.81
2022-08-26T02:55:30.538Z,71.24
2022-08-26T02:58:00.325Z,71.06
2022-08-26T03:00:30.631Z,70.66
2022-08-26T03:03:00.718Z,70.84
2022-08-26T03:05:29.987Z,70.87
2022-08-26T03:07:59.660Z,71.09
2022-08-26T03:10:32.592Z,71.04
2022-08-26T03:13:05.095Z,70.97
2022-08-26T03:15:35.242Z,70.93
2022-08-26T03:18:05.273Z,71.23
2022-08-26T03:20:34.832Z,70.95
2022-08-26T03:23:04.502Z,70.84
2022-08-26T03:25:34.328Z,71.28
2022-08-26T03:28:05.037Z,71.36
2022-08-26T03:30:45.314Z,71.15
2022-08-26T03:33:16.055Z,71.48
2022-08-26T03:35:50.493Z,71.50
2022-08-26T03:38:23.294Z,71.35
2022-08-26T03:40:53.438Z,71.39
2022-08-26T03:43:27.398Z,71.08
2022-08-26T03:45:56.192Z,71.16
2022-08-26T03:48:27.850Z,71.15
2022-08-26T03:50:58.285Z,71.02
2022-08-26T03:53:28.839Z,71.12
2022-08-26T03:55:59.258Z,70.72
2022-08-26T03:58:29.012Z,71.35
2022-08-26T04:00:59.881Z,71.27
2022-08-26T04:03:49.498Z,71.49
2022-08-26T04:06:18.677Z,70.98
2022-08-26T04:08:48.590Z,71.20
2022-08-26T04:11:22.711Z,71.23
2022-08-26T04:13:52.811Z,71.16
2022-08-26T04:16:22.326Z,71.32
2022-08-26T04:18:51.760Z,71.17
2022-08-26T04:21:22.502Z,71.47
2022-08-26T04:23:53.365Z,71.03
2022-08-26T04:26:23.441Z,71.33
2022-08-26T04:28:55.244Z,71.55
2022-08-26T04:31:26.681Z,71.53
2022-08-26T04:34:02.189Z,71.65
2022-08-26T04:36:31.881Z,71.85
2022-08-26T04:39:03.171Z,72.02
2022-08-26T04:41:34.056Z,72.19
2022-08-26T04:44:03.905Z,72.30
2022-08-26T04:46:33.822Z,72.04
2022-08-26T04:49:06.458Z,71.89
2022-08-26T04:51:38.132Z,72.10
2022-08-26T04:54:14.339Z,71.87
2022-08-26T04:56:49.801Z,72.15
2022-08-26T04:59:19.592Z,72.28
2022-08-26T05:01:52.364Z,72.15
2022-08-26T05:04:22.428Z,72.34
2022-08-26T05:06:51.961Z,72.20
2022-08-26T05:09:26.552Z,72.31
2022-08-26T05:11:56.616Z,72.11
2022-08-26T05:14:26.803Z,72.45
2022-08-26T05:16:56.565Z,71.92
2022-08-26T05:19:28.039Z,73.02
2022-08-26T05:21:58.532Z,72.82
2022-08-26T05:24:28.085Z,72.79
2022-08-26T05:26:57.809Z,72.70
2022-08-26T05:29:30.441Z,72.55
2022-08-26T05:32:02.513Z,72.48
2022-08-26T05:34:32.697Z,72.12
2022-08-26T05:37:01.287Z,71.82
2022-08-26T05:39:33.388Z,71.72
2022-08-26T05:42:06.059Z,71.22
2022-08-26T05:44:54.028Z,71.38
2022-08-26T05:47:26.982Z,71.36
2022-08-26T05:49:57.172Z,71.49
2022-08-26T05:52:27.628Z,71.46
2022-08-26T05:54:56.923Z,71.25
2022-08-26T05:57:30.237Z,71.08
2022-08-26T06:00:00.646Z,71.20
2022-08-26T06:02:31.402Z,71.18
2022-08-26T06:05:01.238Z,71.43
2022-08-26T06:07:51.416Z,70.80
2022-08-26T06:10:31.948Z,70.28
2022-08-26T06:13:11.905Z,69.38
2022-08-26T06:15:43.809Z,69.45
2022-08-26T06:18:21.540Z,69.01
2022-08-26T06:20:57.396Z,68.40
2022-08-26T06:23:50.230Z,67.83
2022-08-26T06:26:20.921Z,66.98
2022-08-26T06:28:51.269Z,66.02
2022-08-26T06:31:23.434Z,66.42
2022-08-26T06:33:53.945Z,66.03
2022-08-26T06:36:27.024Z,66.09
2022-08-26T06:39:00.328Z,65.69
2022-08-26T06:41:31.999Z,64.47
2022-08-26T06:44:03.365Z,62.90
2022-08-26T06:46:34.259Z,62.78
2022-08-26T06:49:07.065Z,62.59
2022-08-26T06:51:39.444Z,62.71
2022-08-26T06:54:11.725Z,61.08
2022-08-26T06:56:43.424Z,60.74
2022-08-26T06:59:12.995Z,60.20
2022-08-26T07:01:48.487Z,60.11
2022-08-26T07:04:21.997Z,59.56
2022-08-26T07:06:54.617Z,58.10
2022-08-26T07:09:28.737Z,57.34
2022-08-26T07:11:58.015Z,56.70
2022-08-26T07:14:28.214Z,56.19
2022-08-26T07:16:59.418Z,55.12
2022-08-26T07:19:30.955Z,55.24
2022-08-26T07:22:05.579Z,54.95
2022-08-26T07:24:39.348Z,54.64
2022-08-26T07:27:14.148Z,54.55
2022-08-26T07:29:45.262Z,53.14
2022-08-26T07:32:16.143Z,53.02
2022-08-26T07:34:46.210Z,52.64
2022-08-26T07:37:15.852Z,51.85
2022-08-26T07:39:48.088Z,51.05
2022-08-26T07:42:20.058Z,50.12
2022-08-26T07:44:50.854Z,48.86
2022-08-26T07:47:25.557Z,48.10
2022-08-26T07:49:59.006Z,46.66
2022-08-26T07:52:30.892Z,44.88
2022-08-26T07:55:02.344Z,44.61
2022-08-26T07:57:33.122Z,42.24
2022-08-26T08:00:09.164Z,42.18
2022-08-26T08:02:45.131Z,43.12
2022-08-26T08:05:20.308Z,42.18
2022-08-26T08:07:53.530Z,42.36
2022-08-26T08:10:45.054Z,39.65
2022-08-26T08:13:19.730Z,38.82
2022-08-26T08:15:50.440Z,37.63
2022-08-26T08:18:20.497Z,37.28
2022-08-26T08:20:59.417Z,35.86
2022-08-26T08:23:36.159Z,36.39
2022-08-26T08:26:08.937Z,36.60
2022-08-26T08:28:39.450Z,37.02
2022-08-26T08:31:45.000Z,36.71
2022-08-26T08:34:14.198Z,37.20
2022-08-26T08:36:43.881Z,35.44
2022-08-26T08:39:14.024Z,35.25
2022-08-26T08:42:16.488Z,36.10
2022-08-26T08:44:51.910Z,33.32
2022-08-26T08:47:43.422Z,33.59
2022-08-26T08:50:25.715Z,32.72
2022-08-26T08:53:02.078Z,30.52
2022-08-26T08:55:45.413Z,31.42
2022-08-26T08:58:22.566Z,30.02
2022-08-26T09:01:06.020Z,30.79
2022-08-26T09:04:02.141Z,30.85
2022-08-26T09:06:31.989Z,31.66
2022-08-26T09:09:04.183Z,29.77
2022-08-26T09:11:36.812Z,29.06
2022-08-26T09:14:12.809Z,29.48
2022-08-26T09:17:01.587Z,29.99
2022-08-26T09:19:41.873Z,29.54
2022-08-26T09:22:30.451Z,30.08
2022-08-26T09:25:00.800Z,28.80
2022-08-26T09:27:51.239Z,28.61
2022-08-26T09:30:33.626Z,27.11
2022-08-26T09:33:10.990Z,27.45
2022-08-26T09:35:47.513Z,29.15
2022-08-26T09:38:29.769Z,27.18
2022-08-26T09:41:05.882Z,26.31
2022-08-26T09:43:36.936Z,25.72
2022-08-26T09:46:29.267Z,26.91
2022-08-26T09:49:23.824Z,27.08
2022-08-26T09:52:07.506Z,26.13
2022-08-26T09:54:39.014Z,27.10
2022-08-26T09:57:20.171Z,25.46
2022-08-26T09:59:54.193Z,25.33
2022-08-26T10:02:39.941Z,25.78
2022-08-26T10:05:18.627Z,26.50
2022-08-26T10:07:51.752Z,25.48
2022-08-26T10:10:31.349Z,24.19
2022-08-26T10:13:03.778Z,24.32
2022-08-26T10:15:49.998Z,23.57
2022-08-26T10:18:34.777Z,23.20
2022-08-26T10:21:33.192Z,25.10
2022-08-26T10:24:04.922Z,24.63
2022-08-26T10:26:57.936Z,24.77
2022-08-26T10:29:39.124Z,24.43
2022-08-26T10:32:32.492Z,25.17
2022-08-26T10:35:07.043Z,24.89
2022-08-26T10:37:46.406Z,24.79
2022-08-26T10:40:39.019Z,23.93
2022-08-26T10:43:21.253Z,22.27
2022-08-26T10:45:58.410Z,22.26
2022-08-26T10:49:06.689Z,22.68
2022-08-26T10:52:03.108Z,22.66
2022-08-26T10:54:58.823Z,21.84
2022-08-26T10:57:50.064Z,21.69
2022-08-26T11:01:02.503Z,21.76
2022-08-26T11:04:05.582Z,22.66
2022-08-26T11:06:37.097Z,21.20
2022-08-26T11:09:09.940Z,21.11
2022-08-26T11:11:50.165Z,21.67
2022-08-26T11:14:29.190Z,21.70
2022-08-26T11:17:00.519Z,21.15
2022-08-26T11:19:59.384Z,20.63
2022-08-26T11:22:45.454Z,21.20
2022-08-26T11:25:20.627Z,20.38
2022-08-26T11:27:50.000Z,20.16
2022-08-26T11:30:20.010Z,20.28
2022-08-26T11:32:55.514Z,20.64
2022-08-26T11:35:24.928Z,21.17
2022-08-26T11:38:23.234Z,21.32
2022-08-26T11:41:09.281Z,20.08
2022-08-26T11:43:41.077Z,19.62
2022-08-26T11:46:13.063Z,19.80
2022-08-26T11:48:46.279Z,18.86
2022-08-26T11:51:25.463Z,19.23
2022-08-26T11:54:14.636Z,19.72
2022-08-26T11:56:49.171Z,19.68
2022-08-26T12:02:17.731Z,20.06
2022-08-26T12:04:49.868Z,20.66
2022-08-26T12:07:26.302Z,19.74
2022-08-26T12:10:02.448Z,20.11
2022-08-26T12:12:36.261Z,19.82
2022-08-26T12:15:20.725Z,19.05
2022-08-26T12:17:54.515Z,18.82
2022-08-26T12:20:47.217Z,19.50
2022-08-26T12:23:47.817Z,19.51
2022-08-26T12:26:23.323Z,19.02
2022-08-26T12:28:54.998Z,18.92
2022-08-26T12:31:32.735Z,19.89
2022-08-26T12:34:17.692Z,19.03
2022-08-26T12:36:55.192Z,19.76
2022-08-26T12:39:42.788Z,18.93
2022-08-26T12:42:16.215Z,19.03
2022-08-26T12:44:53.725Z,19.05
2022-08-26T12:47:42.810Z,18.83
2022-08-26T12:50:22.372Z,18.87
2022-08-26T12:53:25.235Z,19.49
2022-08-26T12:55:57.623Z,18.66
2022-08-26T12:58:32.059Z,19.27
2022-08-26T13:01:07.722Z,19.10
2022-08-26T13:03:45.306Z,18.81
2022-08-26T13:06:24.067Z,18.36
2022-08-26T13:09:25.116Z,18.75
2022-08-26T13:11:53.920Z,19.12
2022-08-26T13:14:25.242Z,18.80
2022-08-26T13:16:54.369Z,18.64
2022-08-26T13:19:27.005Z,18.82
2022-08-26T13:21:59.009Z,18.25
2022-08-26T13:24:38.896Z,18.19
2022-08-26T13:27:11.943Z,18.24
2022-08-26T13:29:41.842Z,19.03
2022-08-26T13:32:11.301Z,19.13
2022-08-26T13:34:40.881Z,19.41
2022-08-26T13:37:10.814Z,18.97
2022-08-26T13:39:42.295Z,18.84
2022-08-26T13:42:10.903Z,18.97
2022-08-26T13:44:44.720Z,20.42
2022-08-26T13:47:14.546Z,19.28
2022-08-26T13:49:44.668Z,19.18
2022-08-26T13:52:13.987Z,19.28
2022-08-26T13:54:43.907Z,20.17
2022-08-26T13:57:14.370Z,19.48
2022-08-26T13:59:43.826Z,18.45
2022-08-26T14:02:13.609Z,18.84
2022-08-26T14:04:43.610Z,18.52
2022-08-26T14:07:14.742Z,18.72
2022-08-26T14:09:45.068Z,19.06
2022-08-26T14:12:14.935Z,19.24
2022-08-26T14:14:45.483Z,19.56
2022-08-26T14:17:23.591Z,19.62
2022-08-26T14:19:54.194Z,19.42
2022-08-26T14:22:24.448Z,19.48
2022-08-26T14:24:53.075Z,18.98
2022-08-26T14:27:23.003Z,20.28
2022-08-26T14:29:52.837Z,20.71
2022-08-26T14:32:27.053Z,20.60
2022-08-26T14:34:58.396Z,20.42
2022-08-26T14:37:28.618Z,20.65
2022-08-26T14:39:58.128Z,20.68
2022-08-26T14:42:31.402Z,21.29
2022-08-26T14:45:03.424Z,20.74
2022-08-26T14:47:33.693Z,21.17
2022-08-26T14:50:04.868Z,20.49
2022-08-26T14:52:54.511Z,20.65
2022-08-26T14:55:23.991Z,21.86
2022-08-26T14:57:54.473Z,20.47
2022-08-26T15:00:24.313Z,20.55
2022-08-26T15:02:52.973Z,20.33
2022-08-26T15:05:23.420Z,20.31
2022-08-26T15:07:52.899Z,21.24
2022-08-26T15:10:23.515Z,21.25
2022-08-26T15:12:53.765Z,21.10
2022-08-26T15:15:23.651Z,20.81
2022-08-26T15:17:54.106Z,21.32
2022-08-26T15:20:24.444Z,21.82
2022-08-26T15:22:53.920Z,21.35
2022-08-26T15:25:24.753Z,21.51
2022-08-26T15:27:54.959Z,21.34
2022-08-26T15:30:24.351Z,22.86
2022-08-26T15:32:53.717Z,23.99
2022-08-26T15:35:25.729Z,23.37
2022-08-26T15:37:56.928Z,25.43
2022-08-26T15:40:27.226Z,25.31
2022-08-26T15:43:11.411Z,25.31
2022-08-26T15:45:46.616Z,26.37
2022-08-26T15:48:16.347Z,26.33
2022-08-26T15:50:56.642Z,26.84
2022-08-26T15:53:30.628Z,26.54
2022-08-26T15:56:00.993Z,27.02
2022-08-26T15:58:33.442Z,27.75
2022-08-26T16:01:07.218Z,28.88
2022-08-26T16:03:37.051Z,28.91
2022-08-26T16:06:07.572Z,29.07
2022-08-26T16:08:37.382Z,28.38
2022-08-26T16:11:07.727Z,28.51
2022-08-26T16:13:39.930Z,28.67
2022-08-26T16:16:11.226Z,28.76
2022-08-26T16:18:42.000Z,29.39
2022-08-26T16:21:23.743Z,29.77
2022-08-26T16:23:53.833Z,29.05
2022-08-26T16:26:26.449Z,29.08
2022-08-26T16:28:55.470Z,29.49
2022-08-26T16:31:25.419Z,30.04
2022-08-26T16:33:55.699Z,29.98
2022-08-26T16:36:25.836Z,30.92
2022-08-26T16:38:56.784Z,31.87
2022-08-26T16:41:29.174Z,32.71
2022-08-26T16:44:00.118Z,34.20
2022-08-26T16:46:30.461Z,34.65
2022-08-26T16:49:01.861Z,35.30
2022-08-26T16:51:32.865Z,36.37
2022-08-26T16:54:09.348Z,37.02
2022-08-26T16:56:38.648Z,37.35
2022-08-26T16:59:11.871Z,38.07
2022-08-26T17:01:42.065Z,39.05
2022-08-26T17:04:12.211Z,40.16
2022-08-26T17:06:41.674Z,40.32
2022-08-26T17:09:11.381Z,40.25
2022-08-26T17:11:40.745Z,40.51
2022-08-26T17:14:11.907Z,40.14
2022-08-26T17:16:41.234Z,40.27
2022-08-26T17:19:11.563Z,40.74
2022-08-26T17:21:41.629Z,41.25
2022-08-26T17:24:11.504Z,42.31
2022-08-26T17:26:48.340Z,41.86
2022-08-26T17:29:21.505Z,41.49
2022-08-26T17:31:51.209Z,41.97
2022-08-26T17:34:22.573Z,42.99
2022-08-26T17:36:52.903Z,43.23
2022-08-26T17:39:23.023Z,43.73
2022-08-26T17:41:52.036Z,44.27
2022-08-26T17:44:21.832Z,44.47
2022-08-26T17:46:51.979Z,45.15
2022-08-26T17:49:22.168Z,45.55
2022-08-26T17:51:51.946Z,45.85
2022-08-26T17:54:21.650Z,45.95
2022-08-26T17:56:53.981Z,46.24
2022-08-26T17:59:24.407Z,46.17
2022-08-26T18:02:00.231Z,46.31
2022-08-26T18:04:29.401Z,46.45
2022-08-26T18:06:58.768Z,46.03
2022-08-26T18:09:32.730Z,46.21
2022-08-26T18:12:01.944Z,46.31
2022-08-26T18:14:33.904Z,46.61
2022-08-26T18:17:03.930Z,46.89
2022-08-26T18:19:33.760Z,47.25
2022-08-26T18:22:03.714Z,47.60
2022-08-26T18:24:33.585Z,47.84
2022-08-26T18:27:03.732Z,48.34
2022-08-26T18:29:33.846Z,48.69
2022-08-26T18:32:03.712Z,48.76
2022-08-26T18:34:32.424Z,48.81
2022-08-26T18:37:02.239Z,49.03
2022-08-26T18:39:31.126Z,49.16
2022-08-26T18:42:00.442Z,49.36
2022-08-26T18:44:30.355Z,50.10
2022-08-26T18:47:00.153Z,50.48
2022-08-26T18:49:32.070Z,50.64
2022-08-26T18:52:01.429Z,51.20
2022-08-26T18:54:31.529Z,51.29
2022-08-26T18:57:03.154Z,52.14
2022-08-26T18:59:33.034Z,51.80
2022-08-26T19:02:03.023Z,51.71
2022-08-26T19:04:32.464Z,51.97
2022-08-26T19:07:01.818Z,52.76
2022-08-26T19:09:32.860Z,53.04
2022-08-26T19:12:05.239Z,53.27
2022-08-26T19:14:36.278Z,53.21
2022-08-26T19:17:06.367Z,54.02
2022-08-26T19:19:38.683Z,54.27
2022-08-26T19:22:08.796Z,54.73
2022-08-26T19:24:38.630Z,54.91
2022-08-26T19:27:09.715Z,54.93
2022-08-26T19:29:41.455Z,55.56
2022-08-26T19:32:11.778Z,55.73
2022-08-26T19:34:41.778Z,55.99
2022-08-26T19:37:11.384Z,56.02
2022-08-26T19:39:39.933Z,56.15
2022-08-26T19:42:11.629Z,56.89
2022-08-26T19:45:00.911Z,56.99
2022-08-26T19:47:31.719Z,57.16
2022-08-26T19:50:01.718Z,56.88
2022-08-26T19:52:32.531Z,57.51
2022-08-26T19:55:03.451Z,57.54
2022-08-26T19:57:34.563Z,57.80
2022-08-26T20:00:14.979Z,57.92
2022-08-26T20:02:44.843Z,58.09
2022-08-26T20:05:15.835Z,58.03
2022-08-26T20:07:45.627Z,58.41
2022-08-26T20:10:17.926Z,58.41
2022-08-26T20:12:49.368Z,58.37
2022-08-26T20:15:24.472Z,58.60
2022-08-26T20:17:58.978Z,58.90
2022-08-26T20:20:48.478Z,58.98
2022-08-26T20:23:18.571Z,59.27
2022-08-26T20:25:48.379Z,59.32
2022-08-26T20:28:19.590Z,59.57
2022-08-26T20:30:49.482Z,59.76
2022-08-26T20:33:20.034Z,59.83
2022-08-26T20:35:49.910Z,59.44
2022-08-26T20:38:21.733Z,59.73
2022-08-26T20:40:51.631Z,60.08
2022-08-26T20:43:26.624Z,60.18
2022-08-26T20:45:56.419Z,60.80
2022-08-26T20:48:26.793Z,61.43
2022-08-26T20:51:06.365Z,61.53
2022-08-26T20:53:36.611Z,61.26
2022-08-26T20:56:08.989Z,61.40
2022-08-26T20:58:39.497Z,61.14
2022-08-26T21:01:18.145Z,60.97
2022-08-26T21:03:47.153Z,61.29
2022-08-26T21:06:18.733Z,61.82
2022-08-26T21:08:50.983Z,62.28
2022-08-26T21:11:20.758Z,62.25
2022-08-26T21:14:04.427Z,62.80
2022-08-26T21:16:39.528Z,62.87
2022-08-26T21:19:12.310Z,62.89
2022-08-26T21:21:42.900Z,62.95
2022-08-26T21:24:13.732Z,63.21
2022-08-26T21:26:43.000Z,63.36
2022-08-26T21:29:14.058Z,63.17
2022-08-26T21:31:46.549Z,63.12
2022-08-26T21:34:19.191Z,63.03
2022-08-26T21:36:49.543Z,62.91
2022-08-26T21:39:19.600Z,63.10
2022-08-26T21:41:49.395Z,62.92
2022-08-26T21:44:19.300Z,63.02
2022-08-26T21:46:50.287Z,63.04
2022-08-26T21:49:20.266Z,63.18
2022-08-26T21:51:50.400Z,63.19
2022-08-26T21:54:20.200Z,63.51
2022-08-26T21:56:49.694Z,63.44
2022-08-26T21:59:20.186Z,63.44
2022-08-26T22:01:51.015Z,63.54
2022-08-26T22:04:22.066Z,63.46
2022-08-26T22:06:55.101Z,63.82
2022-08-26T22:09:27.591Z,63.57
2022-08-26T22:11:59.006Z,63.47
2022-08-26T22:14:30.907Z,64.22
2022-08-26T22:17:01.066Z,64.37
2022-08-26T22:19:32.249Z,64.45
2022-08-26T22:22:04.842Z,64.38
2022-08-26T22:24:35.060Z,64.51
2022-08-26T22:27:07.759Z,64.27
2022-08-26T22:29:38.311Z,64.53
2022-08-26T22:32:08.398Z,64.47
2022-08-26T22:34:37.742Z,64.53
2022-08-26T22:37:08.155Z,64.61
2022-08-26T22:39:38.342Z,64.50
2022-08-26T22:42:10.507Z,64.75
2022-08-26T22:44:41.632Z,64.95
2022-08-26T22:47:11.460Z,65.07
2022-08-26T22:49:41.452Z,64.73
2022-08-26T22:52:11.549Z,64.77
2022-08-26T22:54:40.268Z,65.05
2022-08-26T22:57:10.163Z,64.92
2022-08-26T22:59:41.021Z,65.06
2022-08-26T23:02:12.893Z,65.01
2022-08-26T23:04:42.499Z,65.02
2022-08-26T23:07:12.566Z,64.79
2022-08-26T23:09:42.677Z,64.88
2022-08-26T23:12:14.413Z,64.91
2022-08-26T23:14:44.584Z,65.05
2022-08-26T23:17:14.636Z,65.15
2022-08-26T23:19:44.848Z,65.32
2022-08-26T23:22:13.478Z,65.28
2022-08-26T23:24:43.503Z,65.30
2022-08-26T23:27:13.416Z,65.59
2022-08-26T23:29:43.578Z,65.36
2022-08-26T23:32:13.840Z,65.44
2022-08-26T23:34:59.949Z,65.44
2022-08-26T23:37:33.968Z,65.53
2022-08-26T23:40:15.886Z,65.40
2022-08-26T23:42:46.384Z,65.21
2022-08-26T23:45:18.770Z,65.47
2022-08-26T23:47:51.045Z,65.72
2022-08-26T23:50:50.431Z,65.65
2022-08-26T23:53:23.179Z,65.84
2022-08-26T23:55:54.324Z,65.88
2022-08-26T23:58:24.395Z,65.82
